Terminal Aerodrome Forecast
Issued by NWS

Home | Current Version | Previous Version | Text Only | Print | Product List | Glossary On
Versions: 1 2 3 4 5 6 7 8 9 10 11 12 13 14 15 16
000
FTUS43 KICT 021722
TAFHUT
TAF
KHUT 021722Z 0218/0318 19018G26KT P6SM FEW060 SCT130
     FM030100 17012KT P6SM FEW120 SCT200
     FM031200 18013G19KT P6SM BKN100=

USA.gov is the U.S. government's official web portal to all federal, state and local government web resources and services.